Time;durP1;ratioP1;P1;durP2;ratioP2;P2;SDS_P1;SDS_P2;PMS_P1;PMS_P2;Temp;Humidity;BMP_temperature;BMP_pressure;BME280_temperature;BME280_humidity;BME280_pressure;Samples;Min_cycle;Max_cycle;Signal;HPM_P1;HPM_P2
2021/08/15 00:00:25;;;;;;;22.35;14.05;;;;;;;28.15;100.00;96403.50;5004214;28;20103;-55
2021/08/15 00:02:53;;;;;;;18.98;14.05;;;;;;;28.10;100.00;96411.59;5011345;28;20073;-54
2021/08/15 00:05:22;;;;;;;20.95;14.13;;;;;;;28.13;100.00;96406.47;5013416;28;20058;-56
2021/08/15 00:07:53;;;;;;;18.65;14.50;;;;;;;28.16;100.00;96403.25;5013172;28;20436;-55
2021/08/15 00:10:23;;;;;;;17.88;13.30;;;;;;;27.92;100.00;96400.03;5009610;28;20065;-57
2021/08/15 00:12:51;;;;;;;18.55;13.82;;;;;;;28.05;100.00;96395.28;5005368;28;20076;-54
2021/08/15 00:15:20;;;;;;;20.95;14.02;;;;;;;28.09;100.00;96393.69;5010106;28;20454;-53
2021/08/15 00:17:49;;;;;;;20.90;14.52;;;;;;;28.22;100.00;96397.84;5014239;28;20092;-58
2021/08/15 00:20:18;;;;;;;17.58;13.88;;;;;;;28.14;100.00;96405.38;4999617;28;20066;-54
2021/08/15 00:22:47;;;;;;;20.52;13.70;;;;;;;27.88;100.00;96387.25;5008686;28;20069;-58
2021/08/15 00:25:18;;;;;;;18.25;14.30;;;;;;;27.56;100.00;96392.56;5020776;28;20057;-59
2021/08/15 00:27:47;;;;;;;19.25;13.75;;;;;;;27.50;100.00;96386.31;5002788;28;20633;-54
2021/08/15 00:30:17;;;;;;;22.05;14.27;;;;;;;27.67;100.00;96386.22;5003875;28;20469;-54
2021/08/15 00:32:48;;;;;;;22.75;15.07;;;;;;;28.05;100.00;96389.88;5009870;28;20069;-52
2021/08/15 00:35:16;;;;;;;20.55;14.90;;;;;;;27.97;100.00;96388.41;5004759;28;20078;-58
2021/08/15 00:37:45;;;;;;;18.48;13.70;;;;;;;28.03;100.00;96383.88;5007551;28;20080;-52
2021/08/15 00:40:14;;;;;;;20.45;13.82;;;;;;;27.53;100.00;96382.25;5011946;28;21494;-52
2021/08/15 00:42:43;;;;;;;18.95;13.77;;;;;;;27.53;100.00;96374.13;5007490;28;20463;-53
2021/08/15 00:45:13;;;;;;;18.58;14.60;;;;;;;27.71;100.00;96383.81;5006915;28;20465;-55
2021/08/15 00:47:41;;;;;;;17.53;13.87;;;;;;;27.97;100.00;96380.28;5005716;28;20067;-53
2021/08/15 00:50:10;;;;;;;20.40;12.80;;;;;;;27.79;100.00;96372.53;5010811;28;20062;-57
2021/08/15 00:52:38;;;;;;;18.60;12.43;;;;;;;28.17;100.00;96385.06;5007078;28;20086;-54
2021/08/15 00:55:11;;;;;;;19.70;12.82;;;;;;;27.75;100.00;96374.91;5011780;28;20508;-57
2021/08/15 00:57:44;;;;;;;14.80;11.93;;;;;;;28.18;100.00;96381.28;5016980;28;20064;-57
2021/08/15 01:00:13;;;;;;;20.52;12.90;;;;;;;28.01;100.00;96377.88;5012861;28;20057;-54
2021/08/15 01:02:43;;;;;;;19.80;12.98;;;;;;;27.55;100.00;96377.41;5025173;28;20065;-52
2021/08/15 01:05:12;;;;;;;;;;;;;;;27.53;100.00;96374.97;5009034;28;20062;-56
2021/08/15 01:07:41;;;;;;;15.32;11.75;;;;;;;28.26;100.00;96382.72;5018361;28;19960;-57
2021/08/15 01:10:11;;;;;;;17.75;12.90;;;;;;;28.14;100.00;96372.03;5008247;28;20069;-57
2021/08/15 01:12:40;;;;;;;22.15;13.02;;;;;;;28.22;100.00;96374.28;4996014;28;20077;-56
2021/08/15 01:15:10;;;;;;;22.45;14.25;;;;;;;28.31;100.00;96375.41;4990199;28;20077;-57
2021/08/15 01:17:40;;;;;;;20.17;14.70;;;;;;;27.48;100.00;96371.38;4991399;28;20066;-54
2021/08/15 01:20:10;;;;;;;18.47;14.23;;;;;;;27.53;100.00;96368.69;4991347;28;20065;-52
2021/08/15 01:22:39;;;;;;;21.83;16.08;;;;;;;27.42;100.00;96362.34;5010692;28;20461;-50
2021/08/15 01:25:09;;;;;;;21.88;13.52;;;;;;;27.60;100.00;96356.63;4999813;28;20074;-55
2021/08/15 01:27:39;;;;;;;21.00;13.73;;;;;;;27.14;100.00;96358.78;5014887;28;20081;-55
2021/08/15 01:30:11;;;;;;;21.45;13.50;;;;;;;27.96;100.00;96353.44;4991521;28;20038;-53
2021/08/15 01:32:40;;;;;;;19.88;16.05;;;;;;;28.21;100.00;96361.78;4984003;28;20065;-57
2021/08/15 01:35:10;;;;;;;24.48;15.93;;;;;;;28.33;100.00;96358.91;4994851;28;20484;-50
2021/08/15 01:37:38;;;;;;;23.70;16.77;;;;;;;28.20;100.00;96352.03;4988163;28;20086;-51
2021/08/15 01:40:08;;;;;;;23.92;16.40;;;;;;;27.64;100.00;96349.59;5005538;28;20069;-55
2021/08/15 01:42:37;;;;;;;19.05;14.38;;;;;;;27.79;100.00;96351.66;4999235;28;20069;-57
2021/08/15 01:45:11;;;;;;;22.25;16.13;;;;;;;27.93;100.00;96341.22;4984769;28;20485;-56
2021/08/15 01:47:40;;;;;;;18.63;14.05;;;;;;;27.67;100.00;96343.69;4999003;28;20062;-52
2021/08/15 01:50:09;;;;;;;23.83;17.20;;;;;;;28.04;100.00;96352.97;5012575;28;20052;-55
2021/08/15 01:52:38;;;;;;;24.98;19.13;;;;;;;27.11;100.00;96340.31;5010347;28;20069;-54
2021/08/15 01:55:08;;;;;;;25.33;18.83;;;;;;;27.51;100.00;96341.88;4996277;28;20524;-54
2021/08/15 01:57:36;;;;;;;23.83;17.75;;;;;;;28.02;100.00;96344.28;5008756;28;20069;-54
2021/08/15 02:00:06;;;;;;;23.00;17.77;;;;;;;28.04;100.00;96337.50;5011115;28;20057;-56
2021/08/15 02:02:40;;;;;;;20.80;14.73;;;;;;;27.72;100.00;96337.47;5029967;28;20057;-52
2021/08/15 02:05:10;;;;;;;23.83;15.80;;;;;;;27.42;100.00;96335.28;5011994;28;20069;-52
2021/08/15 02:07:38;;;;;;;21.95;15.73;;;;;;;27.75;100.00;96339.69;5011719;28;20080;-49
2021/08/15 02:10:08;;;;;;;17.80;14.95;;;;;;;27.40;100.00;96334.72;5009733;28;20076;-52
2021/08/15 02:12:36;;;;;;;25.83;14.37;;;;;;;27.68;100.00;96339.06;5013169;28;20076;-56
2021/08/15 02:15:06;;;;;;;17.05;13.32;;;;;;;27.12;100.00;96339.28;5011567;28;20491;-58
2021/08/15 02:17:35;;;;;;;21.55;13.80;;;;;;;26.88;100.00;96333.28;5010171;28;20532;-57
2021/08/15 02:20:06;;;;;;;20.63;13.60;;;;;;;27.10;100.00;96345.97;5018781;28;20093;-56
2021/08/15 02:22:34;;;;;;;;;;;;;;;27.24;100.00;96341.84;5012888;28;20077;-54
2021/08/15 02:25:03;;;;;;;23.60;14.60;;;;;;;27.20;100.00;96340.72;5005468;28;19968;-56
2021/08/15 02:27:31;;;;;;;22.90;14.10;;;;;;;26.81;100.00;96346.19;5001897;28;20077;-54
2021/08/15 02:30:00;;;;;;;19.33;13.48;;;;;;;27.30;100.00;96348.16;5014298;28;20066;-54
2021/08/15 02:32:28;;;;;;;21.33;14.63;;;;;;;26.56;100.00;96352.03;5008556;28;20449;-51
2021/08/15 02:34:58;;;;;;;24.88;14.45;;;;;;;26.28;100.00;96359.16;5005205;28;20063;-54
2021/08/15 02:37:27;;;;;;;19.70;15.30;;;;;;;26.08;100.00;96361.53;5005910;28;20445;-55
2021/08/15 02:39:58;;;;;;;21.60;14.63;;;;;;;26.01;100.00;96361.69;5006479;28;20077;-54
2021/08/15 02:42:27;;;;;;;24.92;15.20;;;;;;;25.89;100.00;96358.25;5010280;28;20077;-54
2021/08/15 02:44:56;;;;;;;20.48;15.90;;;;;;;26.00;100.00;96351.97;5008446;28;20065;-55
2021/08/15 02:47:25;;;;;;;24.42;17.67;;;;;;;25.92;100.00;96349.66;5007698;28;20437;-55
2021/08/15 02:49:53;;;;;;;25.83;18.75;;;;;;;25.96;100.00;96348.09;5011094;28;20093;-51
2021/08/15 02:52:24;;;;;;;28.33;20.55;;;;;;;26.69;100.00;96345.44;5008833;28;20099;-55
2021/08/15 02:54:52;;;;;;;28.95;19.85;;;;;;;26.94;100.00;96339.56;5011845;28;20623;-54
2021/08/15 02:57:22;;;;;;;24.77;19.30;;;;;;;26.60;100.00;96338.81;5007102;28;20049;-58
2021/08/15 02:59:51;;;;;;;28.52;21.45;;;;;;;27.02;100.00;96341.84;5029931;28;20053;-54
2021/08/15 03:02:20;;;;;;;30.45;22.70;;;;;;;26.78;100.00;96346.66;5011970;28;20733;-53
2021/08/15 03:04:49;;;;;;;30.63;22.02;;;;;;;26.50;100.00;96342.22;5008096;28;20088;-55
2021/08/15 03:07:18;;;;;;;28.48;21.98;;;;;;;26.40;100.00;96339.34;5017250;28;20137;-56
2021/08/15 03:09:48;;;;;;;28.45;21.67;;;;;;;26.66;100.00;96335.94;5011143;28;20508;-54
2021/08/15 03:12:17;;;;;;;28.40;22.73;;;;;;;27.04;100.00;96331.56;5010870;28;20538;-57
2021/08/15 03:14:45;;;;;;;27.83;21.73;;;;;;;26.98;100.00;96333.41;5018039;28;20062;-58
2021/08/15 03:17:14;;;;;;;28.58;20.40;;;;;;;26.58;100.00;96349.09;5013820;28;20530;-56
2021/08/15 03:19:43;;;;;;;23.63;19.75;;;;;;;26.58;100.00;96336.38;5011833;28;20097;-57
2021/08/15 03:22:11;;;;;;;26.90;19.88;;;;;;;26.57;100.00;96334.75;5002594;28;20500;-55
2021/08/15 03:24:39;;;;;;;24.40;18.85;;;;;;;25.99;100.00;96333.28;5010565;28;20472;-57
2021/08/15 03:27:09;;;;;;;25.63;19.92;;;;;;;26.14;100.00;96327.31;5015273;28;20088;-53
2021/08/15 03:29:38;;;;;;;22.65;18.50;;;;;;;26.82;100.00;96328.88;5008388;28;20076;-58
2021/08/15 03:32:07;;;;;;;21.33;16.63;;;;;;;26.85;100.00;96327.53;5006034;28;20139;-50
2021/08/15 03:34:35;;;;;;;19.75;17.33;;;;;;;26.68;100.00;96323.00;5017893;28;20089;-50
2021/08/15 03:37:04;;;;;;;24.40;18.10;;;;;;;26.59;100.00;96326.38;5006151;28;20453;-56
2021/08/15 03:39:32;;;;;;;21.58;17.40;;;;;;;26.56;100.00;96324.97;5007779;28;20092;-54
2021/08/15 03:42:01;;;;;;;27.58;17.85;;;;;;;26.62;100.00;96318.59;5012513;28;20472;-55
2021/08/15 03:44:32;;;;;;;24.45;17.83;;;;;;;26.58;100.00;96322.84;5007761;28;20076;-54
2021/08/15 03:47:01;;;;;;;24.40;18.40;;;;;;;26.61;100.00;96316.94;5008111;28;20073;-55
2021/08/15 03:49:29;;;;;;;24.33;17.70;;;;;;;26.54;100.00;96318.22;5015243;28;20440;-54
2021/08/15 03:51:58;;;;;;;25.92;18.55;;;;;;;26.60;100.00;96311.78;5021974;28;20080;-55
2021/08/15 03:54:26;;;;;;;23.77;18.15;;;;;;;25.91;100.00;96321.03;5006972;28;20065;-54
2021/08/15 03:56:55;;;;;;;27.48;18.25;;;;;;;26.42;100.00;96315.56;5006814;28;20069;-52
2021/08/15 03:59:23;;;;;;;24.30;19.45;;;;;;;26.08;100.00;96320.19;5017371;28;20101;-52
2021/08/15 04:01:53;;;;;;;25.63;17.45;;;;;;;26.62;100.00;96325.88;5005528;28;20081;-55
2021/08/15 04:04:22;;;;;;;24.60;19.10;;;;;;;26.59;100.00;96326.38;5005905;28;20157;-57
2021/08/15 04:06:50;;;;;;;26.17;20.35;;;;;;;25.70;100.00;96325.19;5006988;28;20483;-54
2021/08/15 04:09:19;;;;;;;34.13;21.52;;;;;;;26.47;100.00;96327.31;5009895;28;20073;-51
2021/08/15 04:11:47;;;;;;;26.45;20.42;;;;;;;26.26;100.00;96320.75;5006926;28;20092;-55
2021/08/15 04:14:15;;;;;;;28.58;20.73;;;;;;;26.26;100.00;96326.16;5002870;28;20070;-53
2021/08/15 04:16:44;;;;;;;23.30;18.60;;;;;;;25.89;100.00;96327.72;5009124;28;20180;-51
2021/08/15 04:19:13;;;;;;;26.35;18.88;;;;;;;25.28;100.00;96327.41;5015763;28;20485;-52
2021/08/15 04:21:42;;;;;;;27.08;19.90;;;;;;;25.63;100.00;96323.72;5002417;28;20551;-55
2021/08/15 04:24:10;;;;;;;25.98;19.63;;;;;;;25.43;100.00;96321.47;5008902;28;20081;-57
2021/08/15 04:26:43;;;;;;;26.95;19.50;;;;;;;26.40;100.00;96320.41;5011506;28;20072;-56
2021/08/15 04:29:13;;;;;;;27.10;20.83;;;;;;;26.63;100.00;96320.22;5010763;28;20082;-55
2021/08/15 04:31:42;;;;;;;25.13;20.80;;;;;;;26.83;100.00;96316.97;5009773;28;20082;-56
2021/08/15 04:34:11;;;;;;;26.33;19.92;;;;;;;26.46;100.00;96328.34;5005884;28;20272;-50
2021/08/15 04:36:41;;;;;;;25.45;18.77;;;;;;;25.70;100.00;96324.38;5012239;28;20072;-49
2021/08/15 04:39:09;;;;;;;25.58;19.35;;;;;;;25.82;100.00;96322.47;5007387;28;20076;-54
2021/08/15 04:41:37;;;;;;;21.85;17.67;;;;;;;26.31;100.00;96330.00;5008940;28;20066;-54
2021/08/15 04:44:06;;;;;;;21.98;17.17;;;;;;;26.74;100.00;96323.91;5018863;28;20389;-55
2021/08/15 04:46:34;;;;;;;21.67;17.02;;;;;;;26.83;100.00;96327.78;5014552;28;20070;-54
2021/08/15 04:49:03;;;;;;;23.83;17.33;;;;;;;26.92;100.00;96330.88;5009371;28;20076;-59
2021/08/15 04:51:32;;;;;;;21.27;17.20;;;;;;;26.28;100.00;96328.59;5015740;28;20523;-53
2021/08/15 04:54:03;;;;;;;23.48;17.83;;;;;;;26.85;100.00;96325.66;5014608;28;20096;-53
2021/08/15 04:56:33;;;;;;;24.50;18.90;;;;;;;27.33;100.00;96328.69;5012304;28;20479;-56
2021/08/15 04:59:02;;;;;;;29.42;19.48;;;;;;;27.41;100.00;96329.03;5012515;28;20100;-51
2021/08/15 05:01:30;;;;;;;24.98;18.08;;;;;;;28.90;100.00;96320.19;5015250;28;20054;-54
2021/08/15 05:03:59;;;;;;;23.85;16.80;;;;;;;29.36;100.00;96323.13;5018049;28;20065;-53
2021/08/15 05:06:28;;;;;;;22.25;16.38;;;;;;;29.16;100.00;96326.56;5010833;28;20481;-57
2021/08/15 05:08:56;;;;;;;19.98;16.42;;;;;;;30.44;97.81;96330.28;5005831;28;20057;-55
2021/08/15 05:11:26;;;;;;;24.17;16.52;;;;;;;29.47;100.00;96334.81;5010192;28;20544;-55
2021/08/15 05:13:54;;;;;;;22.02;16.35;;;;;;;30.07;100.00;96329.75;5014638;28;20068;-55
2021/08/15 05:16:23;;;;;;;19.20;14.95;;;;;;;30.96;86.87;96340.00;5013082;28;20089;-51
2021/08/15 05:18:51;;;;;;;19.17;15.73;;;;;;;30.24;94.91;96331.13;5017001;28;20072;-57
2021/08/15 05:21:20;;;;;;;20.45;16.95;;;;;;;30.71;92.11;96335.41;5017170;28;20540;-54
2021/08/15 05:23:48;;;;;;;20.15;16.52;;;;;;;30.74;93.58;96340.31;5007217;28;20092;-57
2021/08/15 05:26:17;;;;;;;20.90;17.70;;;;;;;30.37;96.51;96348.00;5006335;28;20061;-57
2021/08/15 05:28:47;;;;;;;21.77;17.05;;;;;;;30.43;96.26;96341.47;5016681;28;20448;-57
2021/08/15 05:31:15;;;;;;;19.83;16.83;;;;;;;32.37;76.76;96348.72;5013308;28;20279;-53
2021/08/15 05:33:44;;;;;;;21.20;17.08;;;;;;;31.57;86.38;96344.38;5005218;28;20054;-55
2021/08/15 05:36:12;;;;;;;18.55;16.52;;;;;;;32.88;68.90;96341.97;5007239;28;20088;-51
2021/08/15 05:38:40;;;;;;;21.75;17.83;;;;;;;31.91;81.78;96351.84;5015166;28;20065;-53
2021/08/15 05:41:09;;;;;;;20.60;18.08;;;;;;;30.06;100.00;96350.69;5009228;28;20053;-56
2021/08/15 05:43:37;;;;;;;24.48;19.25;;;;;;;29.73;100.00;96350.13;5011441;28;20085;-56
2021/08/15 05:46:08;;;;;;;23.15;19.23;;;;;;;29.53;100.00;96353.59;5012953;28;20057;-58
2021/08/15 05:48:36;;;;;;;;;;;;;;;29.43;100.00;96347.31;5011729;28;20231;-50
2021/08/15 05:51:06;;;;;;;27.27;20.88;;;;;;;29.38;100.00;96350.81;5005872;28;19971;-57
2021/08/15 05:53:35;;;;;;;25.15;20.48;;;;;;;29.16;100.00;96352.94;5007120;28;20077;-55
2021/08/15 05:56:04;;;;;;;26.23;21.38;;;;;;;28.74;100.00;96353.78;5011087;28;20084;-51
2021/08/15 05:58:32;;;;;;;27.77;22.52;;;;;;;29.54;100.00;96347.06;5017383;28;20057;-55
2021/08/15 06:01:01;;;;;;;29.10;21.45;;;;;;;29.78;100.00;96352.03;5007232;28;20503;-55
2021/08/15 06:03:31;;;;;;;30.73;22.73;;;;;;;28.69;100.00;96357.25;5012944;28;20076;-55
2021/08/15 06:06:00;;;;;;;31.65;22.02;;;;;;;29.43;100.00;96345.41;5015694;28;20110;-52
2021/08/15 06:08:28;;;;;;;26.00;22.67;;;;;;;30.18;100.00;96353.16;5008319;28;20093;-56
2021/08/15 06:10:57;;;;;;;27.80;22.08;;;;;;;30.73;100.00;96352.31;5009722;28;20069;-52
2021/08/15 06:13:25;;;;;;;26.70;22.00;;;;;;;30.27;100.00;96349.63;5015435;28;20089;-54
2021/08/15 06:15:54;;;;;;;28.83;21.83;;;;;;;30.86;100.00;96352.84;5008065;28;20065;-52
2021/08/15 06:18:22;;;;;;;28.17;21.50;;;;;;;30.43;100.00;96352.34;5014097;28;20065;-51
2021/08/15 06:20:52;;;;;;;28.63;22.10;;;;;;;31.15;100.00;96356.56;5010293;28;20073;-50
2021/08/15 06:23:21;;;;;;;29.58;22.20;;;;;;;30.83;100.00;96347.94;5010269;28;20069;-54
2021/08/15 06:25:49;;;;;;;26.05;21.70;;;;;;;31.31;100.00;96353.75;5008696;28;20092;-53
2021/08/15 06:28:18;;;;;;;27.02;20.73;;;;;;;31.21;100.00;96354.59;5010239;28;20560;-52
2021/08/15 06:30:46;;;;;;;24.35;20.33;;;;;;;31.18;100.00;96344.28;5010362;28;20085;-54
2021/08/15 06:33:17;;;;;;;27.67;21.20;;;;;;;30.72;100.00;96355.28;5012669;28;20069;-52
2021/08/15 06:35:46;;;;;;;28.75;20.98;;;;;;;30.20;100.00;96351.81;5004627;28;20586;-53
2021/08/15 06:38:16;;;;;;;24.75;19.95;;;;;;;31.90;98.01;96347.47;5006651;28;21659;-55
2021/08/15 06:40:44;;;;;;;24.33;20.42;;;;;;;31.98;90.36;96348.81;5020416;28;20658;-52
2021/08/15 06:43:13;;;;;;;31.02;19.55;;;;;;;32.33;84.28;96353.97;5006918;28;21691;-53
2021/08/15 06:45:41;;;;;;;23.95;19.10;;;;;;;31.73;86.49;96342.41;5010905;28;20061;-55
2021/08/15 06:48:10;;;;;;;27.03;19.80;;;;;;;32.45;87.98;96344.59;5006629;28;20046;-57
2021/08/15 06:50:39;;;;;;;25.45;18.40;;;;;;;32.20;85.31;96349.16;5010170;28;20504;-57
2021/08/15 06:53:08;;;;;;;21.75;17.73;;;;;;;32.86;74.96;96345.00;5003861;28;20060;-55
2021/08/15 06:55:38;;;;;;;22.20;18.08;;;;;;;32.68;72.53;96340.28;5016913;28;20068;-51
2021/08/15 06:58:07;;;;;;;22.88;18.13;;;;;;;32.78;72.67;96343.72;5006684;28;20303;-52
2021/08/15 07:00:35;;;;;;;25.55;17.70;;;;;;;32.91;71.48;96335.94;5008929;28;20077;-58
2021/08/15 07:03:04;;;;;;;25.02;18.48;;;;;;;33.22;68.56;96339.97;5006409;28;20061;-56
2021/08/15 07:05:33;;;;;;;21.20;17.10;;;;;;;33.15;71.61;96344.97;5000503;28;20070;-55
2021/08/15 07:08:01;;;;;;;23.55;17.15;;;;;;;33.08;74.47;96339.06;5008196;28;20089;-56
2021/08/15 07:10:30;;;;;;;22.15;17.25;;;;;;;32.58;74.25;96341.19;5006471;28;20104;-56
2021/08/15 07:13:01;;;;;;;25.08;18.27;;;;;;;32.74;73.38;96347.31;5022305;28;20057;-54
2021/08/15 07:15:29;;;;;;;22.23;17.67;;;;;;;31.51;90.57;96340.06;5008952;28;20072;-57
2021/08/15 07:17:59;;;;;;;22.42;17.42;;;;;;;32.75;74.92;96340.75;5005001;28;20073;-55
2021/08/15 07:20:28;;;;;;;21.90;16.83;;;;;;;32.15;82.75;96341.03;5010584;28;20081;-51
2021/08/15 07:22:57;;;;;;;23.07;17.20;;;;;;;33.25;73.37;96344.84;5013206;28;20081;-53
2021/08/15 07:25:28;;;;;;;21.77;17.25;;;;;;;33.54;71.47;96341.22;5011278;28;20096;-54
2021/08/15 07:27:58;;;;;;;20.45;16.75;;;;;;;33.90;67.11;96333.31;5002888;28;20050;-54
2021/08/15 07:30:28;;;;;;;23.88;17.42;;;;;;;32.71;70.63;96337.78;5003366;28;20057;-49
2021/08/15 07:32:58;;;;;;;20.27;16.10;;;;;;;33.31;65.26;96330.00;5010362;28;20469;-50
2021/08/15 07:35:27;;;;;;;20.33;16.52;;;;;;;33.38;61.67;96328.81;5002233;28;20069;-50
2021/08/15 07:37:55;;;;;;;21.70;15.98;;;;;;;32.39;71.17;96336.44;5006258;28;20076;-53
2021/08/15 07:40:24;;;;;;;15.85;12.25;;;;;;;32.73;60.19;96335.59;5015227;28;20461;-51
2021/08/15 07:42:54;;;;;;;15.73;12.68;;;;;;;32.93;59.25;96329.06;5003564;28;20069;-55
2021/08/15 07:45:25;;;;;;;18.73;12.15;;;;;;;31.74;62.21;96335.03;5008108;28;20409;-48
2021/08/15 07:47:56;;;;;;;13.88;11.00;;;;;;;32.49;56.91;96334.75;5015799;28;20070;-54
2021/08/15 07:50:25;;;;;;;12.48;11.13;;;;;;;32.79;53.07;96331.69;4999281;28;20088;-49
2021/08/15 07:52:53;;;;;;;15.00;11.23;;;;;;;33.54;52.93;96331.09;5005915;28;20077;-50
2021/08/15 07:55:23;;;;;;;12.60;11.03;;;;;;;34.26;52.38;96328.09;5011539;28;20106;-53
2021/08/15 07:57:51;;;;;;;16.35;11.70;;;;;;;34.95;49.16;96338.38;5012219;28;20523;-53
2021/08/15 08:00:20;;;;;;;14.68;11.48;;;;;;;33.09;52.15;96337.94;5005477;28;20065;-51
2021/08/15 08:02:48;;;;;;;13.48;10.73;;;;;;;33.97;49.72;96336.47;5004255;28;20077;-54
2021/08/15 08:05:19;;;;;;;15.82;11.43;;;;;;;32.00;59.56;96338.41;5019843;28;20096;-55
2021/08/15 08:07:48;;;;;;;14.82;10.90;;;;;;;32.64;53.70;96337.31;5012762;28;20049;-51
2021/08/15 08:10:16;;;;;;;14.95;10.35;;;;;;;34.04;51.60;96329.84;5002632;28;20493;-54
2021/08/15 08:12:45;;;;;;;14.80;10.70;;;;;;;35.07;46.74;96322.28;5007325;28;20072;-54
2021/08/15 08:15:18;;;;;;;12.27;11.02;;;;;;;32.99;53.37;96330.66;5005471;28;20513;-47
2021/08/15 08:17:47;;;;;;;12.30;9.50;;;;;;;32.83;50.34;96327.28;5004365;28;20057;-52
2021/08/15 08:20:17;;;;;;;12.40;8.93;;;;;;;32.74;50.38;96320.00;5014741;28;20058;-53
2021/08/15 08:22:48;;;;;;;11.50;9.23;;;;;;;33.26;47.76;96324.59;5011664;28;20077;-56
2021/08/15 08:25:18;;;;;;;13.52;9.95;;;;;;;33.99;47.87;96315.09;5009843;28;20074;-55
2021/08/15 08:27:47;;;;;;;16.20;10.13;;;;;;;33.19;49.47;96315.94;5009683;28;20065;-51
2021/08/15 08:30:15;;;;;;;13.18;10.15;;;;;;;33.64;50.70;96310.19;5007748;28;20061;-51
2021/08/15 08:33:02;;;;;;;11.85;10.50;;;;;;;33.01;51.46;96316.72;5000294;28;20045;-50
2021/08/15 08:35:31;;;;;;;14.50;10.68;;;;;;;33.94;49.99;96311.63;5011000;28;20478;-51
2021/08/15 08:38:01;;;;;;;11.68;10.02;;;;;;;32.84;51.00;96307.06;5006333;28;20073;-55
2021/08/15 08:40:30;;;;;;;13.07;9.73;;;;;;;32.95;51.66;96307.78;5014922;28;20069;-50
2021/08/15 08:42:59;;;;;;;14.73;10.60;;;;;;;33.95;49.00;96296.84;4996966;28;20072;-49
2021/08/15 08:45:28;;;;;;;12.85;10.20;;;;;;;33.01;50.07;96305.81;5007250;28;20062;-54
2021/08/15 08:47:57;;;;;;;12.52;10.20;;;;;;;32.91;49.89;96300.44;5010010;28;20081;-55
2021/08/15 08:50:25;;;;;;;19.63;10.52;;;;;;;33.15;52.08;96301.25;5003981;28;20092;-52
2021/08/15 08:52:54;;;;;;;14.50;9.95;;;;;;;33.84;49.65;96289.91;5004804;28;20072;-48
2021/08/15 08:55:24;;;;;;;11.63;9.23;;;;;;;33.07;50.23;96296.41;5013504;28;20535;-55
2021/08/15 08:57:52;;;;;;;;;;;;;;;34.60;46.82;96280.41;5007728;28;20081;-53
2021/08/15 09:00:21;;;;;;;16.55;10.07;;;;;;;33.40;50.71;96282.88;4997887;28;20062;-56
2021/08/15 09:02:50;;;;;;;11.80;10.43;;;;;;;33.23;50.80;96284.19;5011697;28;20074;-48
2021/08/15 09:05:31;;;;;;;15.60;10.05;;;;;;;33.57;51.45;96282.38;5000233;28;20145;-51
2021/08/15 09:08:05;;;;;;;12.90;10.77;;;;;;;34.59;46.64;96278.78;5007486;28;20168;-53
2021/08/15 09:10:38;;;;;;;13.75;10.10;;;;;;;33.86;48.15;96279.47;5004803;28;20536;-52
2021/08/15 09:13:08;;;;;;;11.35;9.80;;;;;;;33.53;49.35;96279.44;5015840;28;20088;-57
2021/08/15 09:15:37;;;;;;;13.98;10.07;;;;;;;35.27;46.21;96271.66;5005148;28;20153;-56
2021/08/15 09:18:06;;;;;;;13.70;9.85;;;;;;;33.12;49.27;96273.69;5006592;28;20439;-53
2021/08/15 09:20:40;;;;;;;14.57;9.93;;;;;;;34.47;46.31;96265.56;5007075;28;20096;-56
2021/08/15 09:23:23;;;;;;;16.30;9.52;;;;;;;35.17;44.97;96269.97;5003705;28;20057;-53
2021/08/15 09:26:16;;;;;;;12.85;9.35;;;;;;;35.75;41.18;96267.59;5008510;28;20088;-55
2021/08/15 09:28:46;;;;;;;17.00;10.10;;;;;;;35.37;41.23;96268.69;5005657;28;20458;-54
2021/08/15 09:31:23;;;;;;;13.02;9.75;;;;;;;34.41;43.81;96264.06;5001162;28;20406;-53
2021/08/15 09:33:52;;;;;;;16.17;9.63;;;;;;;35.47;44.10;96264.91;5001826;28;20065;-56
2021/08/15 09:36:30;;;;;;;14.07;10.27;;;;;;;35.29;44.33;96258.47;5008994;28;20081;-53
2021/08/15 09:39:01;;;;;;;12.15;9.35;;;;;;;34.86;45.07;96261.56;5004402;28;20069;-53
2021/08/15 09:41:34;;;;;;;13.43;9.15;;;;;;;35.70;42.35;96249.31;5015302;28;20068;-55
2021/08/15 09:44:23;;;;;;;14.13;9.88;;;;;;;35.89;43.29;96263.69;5004362;28;20515;-56
2021/08/15 09:47:06;;;;;;;14.63;10.07;;;;;;;35.04;45.06;96253.56;5011257;28;20083;-55
2021/08/15 09:49:37;;;;;;;11.13;9.55;;;;;;;36.17;42.21;96258.06;5004847;28;20407;-55
2021/08/15 09:52:06;;;;;;;10.70;8.93;;;;;;;36.02;40.93;96250.22;5014542;28;20058;-56
2021/08/15 09:54:36;;;;;;;11.60;9.00;;;;;;;36.48;40.76;96244.38;5007819;28;20076;-56
2021/08/15 09:57:09;;;;;;;13.68;9.32;;;;;;;35.90;42.85;96237.84;5011264;28;20061;-53
2021/08/15 09:59:39;;;;;;;18.58;9.93;;;;;;;34.64;45.95;96254.03;5010918;28;20076;-56
2021/08/15 10:02:07;;;;;;;13.45;9.63;;;;;;;35.34;43.87;96250.13;5008273;28;20073;-58
2021/08/15 10:04:38;;;;;;;13.93;9.75;;;;;;;35.56;43.05;96252.13;5005143;28;20069;-57
2021/08/15 10:07:08;;;;;;;11.43;9.35;;;;;;;36.01;42.60;96246.66;5030941;28;20080;-56
2021/08/15 10:09:37;;;;;;;12.30;9.43;;;;;;;35.75;43.74;96243.69;4989523;28;20466;-54
2021/08/15 10:12:06;;;;;;;11.90;10.00;;;;;;;36.05;42.85;96250.41;5004284;28;20096;-56
2021/08/15 10:14:37;;;;;;;14.60;9.93;;;;;;;35.55;43.85;96239.53;4999168;28;20125;-52
2021/08/15 10:17:10;;;;;;;13.23;9.57;;;;;;;36.46;41.64;96241.09;5011120;28;20530;-45
2021/08/15 10:19:42;;;;;;;13.40;9.45;;;;;;;36.86;40.55;96232.03;5015990;28;20456;-55
2021/08/15 10:22:42;;;;;;;26.80;11.10;;;;;;;36.52;42.33;96228.06;5006932;28;20453;-59
2021/08/15 10:25:31;;;;;;;22.17;10.20;;;;;;;36.84;40.81;96224.13;5006725;28;20073;-51
2021/08/15 10:28:00;;;;;;;13.18;9.88;;;;;;;36.94;39.90;96220.25;5011291;28;20066;-57
2021/08/15 10:30:54;;;;;;;11.85;9.68;;;;;;;36.76;41.49;96219.41;5014435;28;20450;-53
2021/08/15 10:33:25;;;;;;;14.85;9.60;;;;;;;35.34;43.07;96217.22;5013213;28;20076;-53
2021/08/15 10:36:21;;;;;;;14.70;10.45;;;;;;;36.51;40.98;96223.69;5008298;28;20057;-57
2021/08/15 10:38:51;;;;;;;14.00;9.98;;;;;;;36.71;41.26;96216.81;4994578;28;20073;-57
2021/08/15 10:41:51;;;;;;;13.00;9.82;;;;;;;37.23;40.69;96214.97;5012003;28;20085;-56
2021/08/15 10:44:20;;;;;;;17.35;10.38;;;;;;;36.78;40.38;96212.44;5020172;28;20453;-53
2021/08/15 10:47:14;;;;;;;17.88;9.88;;;;;;;36.35;42.12;96215.03;5005184;28;20073;-52
2021/08/15 10:49:50;;;;;;;14.07;10.25;;;;;;;36.56;44.91;96207.88;5008976;28;20081;-50
2021/08/15 10:52:34;;;;;;;16.95;10.27;;;;;;;36.63;40.88;96201.91;5006701;28;20457;-52
2021/08/15 10:55:05;;;;;;;16.08;10.93;;;;;;;36.79;42.22;96197.59;5018763;28;20076;-54
2021/08/15 10:57:42;;;;;;;15.18;10.20;;;;;;;35.79;42.75;96197.22;5013991;28;20060;-51
2021/08/15 11:00:42;;;;;;;22.15;10.77;;;;;;;35.43;44.40;96193.41;5005932;28;20084;-50
2021/08/15 11:03:55;;;;;;;16.48;10.75;;;;;;;36.02;42.81;96187.88;5009192;28;20065;-55
2021/08/15 11:06:51;;;;;;;16.35;10.25;;;;;;;35.55;44.28;96181.09;4999754;28;20077;-51
2021/08/15 11:09:20;;;;;;;18.98;10.80;;;;;;;35.43;44.03;96178.91;5005789;28;20081;-52
2021/08/15 11:12:06;;;;;;;13.45;10.48;;;;;;;35.23;46.21;96174.69;5010859;28;20516;-52
2021/08/15 11:14:35;;;;;;;14.65;11.05;;;;;;;36.80;40.94;96162.69;5008550;28;20073;-54
2021/08/15 11:17:15;;;;;;;14.30;10.40;;;;;;;36.48;41.53;96161.97;5012202;28;20115;-56
2021/08/15 11:19:45;;;;;;;;;;;;;;;36.17;42.30;96167.47;5011524;28;20520;-53
2021/08/15 11:22:17;;;;;;;13.70;10.10;;;;;;;36.52;43.58;96162.13;5008609;28;20376;-53
2021/08/15 11:24:51;;;;;;;14.88;10.55;;;;;;;36.72;41.07;96145.03;5012826;28;20065;-54
2021/08/15 11:27:28;;;;;;;12.75;9.63;;;;;;;36.79;41.52;96145.38;5010093;28;20076;-55
2021/08/15 11:29:58;;;;;;;13.98;10.38;;;;;;;37.25;40.32;96140.41;5008796;28;20145;-53